Time;durP1;ratioP1;P1;durP2;ratioP2;P2;SDS_P1;SDS_P2;PMS_P1;PMS_P2;Temp;Humidity;BMP_temperature;BMP_pressure;BME280_temperature;BME280_humidity;BME280_pressure;Samples;Min_cycle;Max_cycle;Signal;HPM_P1;HPM_P2
2021/05/29 00:00:34;;;;;;;4.20;3.90;;;10.50;99.90;;;11.31;79.52;98434.50;5223717;28;20227;-59
2021/05/29 00:03:06;;;;;;;3.90;3.70;;;10.50;99.90;;;11.30;78.95;98426.72;5229602;28;20288;-60
2021/05/29 00:05:40;;;;;;;4.22;3.92;;;10.50;99.90;;;11.37;78.80;98424.66;5225103;28;20217;-60
2021/05/29 00:08:13;;;;;;;4.20;3.90;;;10.50;99.90;;;11.44;78.94;98419.13;5227166;28;20201;-58
2021/05/29 00:10:50;;;;;;;4.10;3.90;;;10.70;99.90;;;11.51;79.26;98425.53;5233075;28;20192;-60
2021/05/29 00:13:25;;;;;;;4.32;3.95;;;10.70;99.90;;;11.50;79.57;98428.84;5228709;28;20208;-60
2021/05/29 00:15:59;;;;;;;4.20;3.95;;;10.60;99.90;;;11.50;79.13;98428.84;5234490;28;20227;-57
2021/05/29 00:18:31;;;;;;;4.25;3.95;;;10.60;99.90;;;11.50;78.78;98426.28;5235716;28;20193;-60
2021/05/29 00:21:06;;;;;;;3.80;3.60;;;10.60;99.90;;;11.53;78.66;98421.38;5234487;28;20227;-58
2021/05/29 00:23:38;;;;;;;4.72;4.43;;;10.60;99.90;;;11.52;78.82;98423.84;5237805;28;20201;-58
2021/05/29 00:26:11;;;;;;;3.92;3.70;;;10.60;99.90;;;11.50;79.68;98428.84;5236479;28;20231;-60
2021/05/29 00:28:43;;;;;;;4.53;4.13;;;10.70;99.90;;;11.47;79.92;98426.09;5237237;28;20204;-61
2021/05/29 00:31:16;;;;;;;4.30;4.00;;;10.60;99.90;;;11.43;79.82;98414.81;5235007;28;20197;-58
2021/05/29 00:33:49;;;;;;;4.90;4.43;;;10.60;99.90;;;11.44;80.31;98413.13;5236830;28;20201;-61
2021/05/29 00:36:22;;;;;;;4.05;3.75;;;10.60;99.90;;;11.45;80.37;98417.47;5236166;28;20282;-60
2021/05/29 00:38:55;;;;;;;4.72;4.40;;;10.60;99.90;;;11.42;80.04;98407.91;5236340;28;20205;-59
2021/05/29 00:41:27;;;;;;;4.72;4.30;;;10.50;99.90;;;11.43;80.02;98406.25;5231305;28;20221;-60
2021/05/29 00:44:00;;;;;;;4.30;4.00;;;10.60;99.90;;;11.44;80.91;98405.44;5226719;28;20585;-61
2021/05/29 00:46:33;;;;;;;4.38;4.05;;;10.60;99.90;;;11.49;80.80;98404.06;5228741;28;20212;-61
2021/05/29 00:49:05;;;;;;;4.05;3.85;;;10.60;99.90;;;11.50;80.70;98395.56;5225028;28;20201;-59
2021/05/29 00:51:40;;;;;;;4.70;4.40;;;10.60;99.90;;;11.47;80.22;98396.31;5233304;28;20272;-58
2021/05/29 00:54:13;;;;;;;4.40;4.00;;;10.60;99.90;;;11.52;81.04;98390.56;5235393;28;20551;-56
2021/05/29 00:56:45;;;;;;;4.85;4.47;;;10.70;99.90;;;11.51;80.00;98387.13;5234761;28;20220;-57
2021/05/29 00:59:19;;;;;;;4.35;4.05;;;10.70;99.90;;;11.53;79.43;98387.22;5231844;28;20194;-60
2021/05/29 01:01:51;;;;;;;4.80;4.40;;;10.60;99.90;;;11.57;78.46;98392.63;5229487;28;20218;-57
2021/05/29 01:04:24;;;;;;;4.30;4.03;;;10.70;99.90;;;11.51;79.46;98379.44;5235795;28;20197;-56
2021/05/29 01:06:57;;;;;;;5.15;3.97;;;10.60;99.90;;;11.46;79.38;98378.28;5235040;28;20219;-59
2021/05/29 01:09:30;;;;;;;4.88;4.57;;;10.60;99.90;;;11.41;79.19;98379.66;5235133;28;20736;-56
2021/05/29 01:12:04;;;;;;;4.90;4.50;;;10.50;99.90;;;11.36;80.19;98378.47;5227940;28;20193;-60
2021/05/29 01:14:46;;;;;;;4.80;4.50;;;10.50;99.90;;;11.34;79.94;98377.53;5235110;28;20252;-60
2021/05/29 01:17:20;;;;;;;5.47;4.97;;;10.50;99.90;;;11.32;80.46;98373.97;5228572;28;20189;-55
2021/05/29 01:19:53;;;;;;;4.50;4.10;;;10.40;99.90;;;11.24;80.41;98382.03;5234189;28;20197;-59
2021/05/29 01:22:42;;;;;;;4.45;4.15;;;10.40;99.90;;;11.35;80.88;98375.03;5228272;28;20213;-58
2021/05/29 01:25:21;;;;;;;4.97;4.60;;;10.40;99.90;;;11.33;81.94;98380.84;5234599;28;20224;-58
2021/05/29 01:27:59;;;;;;;4.82;4.53;;;10.50;99.90;;;11.34;80.75;98386.06;5234178;28;20683;-60
2021/05/29 01:30:35;;;;;;;5.20;4.90;;;10.50;99.90;;;11.36;80.58;98386.16;5227146;28;20203;-59
2021/05/29 01:33:11;;;;;;;4.88;4.57;;;10.50;99.90;;;11.37;80.59;98387.94;5227341;28;20211;-59
2021/05/29 01:35:45;;;;;;;4.90;4.50;;;10.50;99.90;;;11.33;80.37;98388.53;5230680;28;20626;-56
2021/05/29 01:38:22;;;;;;;4.72;4.30;;;10.50;99.90;;;11.29;80.44;98382.34;5233729;28;20289;-58
2021/05/29 01:41:01;;;;;;;5.15;4.75;;;10.40;99.90;;;11.30;80.06;98386.66;5232976;28;20220;-56
2021/05/29 01:43:35;;;;;;;5.00;4.57;;;10.40;99.90;;;11.32;80.53;98390.22;5226864;28;20225;-58
2021/05/29 01:46:09;;;;;;;5.18;4.72;;;10.40;99.90;;;11.33;79.72;98391.09;5232762;28;20231;-57
2021/05/29 01:48:44;;;;;;;4.78;4.47;;;10.40;99.90;;;11.27;80.82;98387.38;5233610;28;20201;-60
2021/05/29 01:51:20;;;;;;;4.70;4.28;;;10.30;99.90;;;11.25;80.58;98383.84;5233202;28;20201;-59
2021/05/29 01:53:56;;;;;;;4.63;4.32;;;10.30;99.90;;;11.18;80.45;98389.34;5234042;28;20265;-56
2021/05/29 01:56:28;;;;;;;4.65;4.35;;;10.20;99.90;;;11.16;80.41;98393.50;5232800;28;20213;-58
2021/05/29 01:59:01;;;;;;;5.75;5.13;;;10.20;99.90;;;11.14;81.39;98391.63;5225623;28;20300;-58
2021/05/29 02:01:33;;;;;;;4.55;4.18;;;10.20;99.90;;;11.09;80.69;98396.44;5230434;28;20213;-58
2021/05/29 02:08:17;;;;;;;4.82;4.55;;;10.20;99.90;;;11.10;80.92;98398.19;5221639;28;20309;-58
2021/05/29 02:10:51;;;;;;;4.57;4.28;;;10.20;99.90;;;11.08;81.72;98384.44;5233213;28;20194;-60
2021/05/29 02:13:26;;;;;;;5.20;4.85;;;10.10;99.90;;;11.10;81.30;98392.19;5233182;28;20197;-58
2021/05/29 02:15:59;;;;;;;4.93;4.53;;;10.10;99.90;;;11.08;81.66;98394.69;5233235;28;20213;-58
2021/05/29 02:18:32;;;;;;;4.65;4.32;;;10.10;99.90;;;11.03;81.21;98388.38;5227266;28;20212;-58
2021/05/29 02:21:09;;;;;;;5.28;4.90;;;10.10;99.90;;;10.99;81.44;98391.53;5227412;28;20213;-56
2021/05/29 02:23:45;;;;;;;4.75;4.35;;;10.10;99.90;;;10.99;81.54;98383.88;5232043;28;20205;-57
2021/05/29 02:26:25;;;;;;;4.85;4.55;;;10.10;99.90;;;10.91;80.70;98385.03;5245486;22;20235;-87
2021/05/29 02:28:59;;;;;;;5.28;4.90;;;10.10;99.90;;;10.87;81.40;98381.38;5228964;28;20656;-87
2021/05/29 02:31:33;;;;;;;5.13;4.60;;;10.00;99.90;;;10.82;82.28;98387.91;5228850;28;20601;-87
2021/05/29 02:34:11;;;;;;;4.93;4.63;;;10.00;99.90;;;10.81;82.93;98389.53;5211272;28;20307;-87
2021/05/29 02:36:47;;;;;;;4.47;4.07;;;10.00;99.90;;;10.83;82.28;98392.22;5225131;28;20207;-87
2021/05/29 02:39:23;;;;;;;4.53;4.32;;;9.90;99.90;;;10.80;82.53;98390.34;5228923;28;20208;-88
2021/05/29 02:41:57;;;;;;;4.57;4.28;;;9.90;99.90;;;10.79;82.33;98401.38;5218193;28;20261;-87
2021/05/29 02:44:30;;;;;;;4.80;4.40;;;9.90;99.90;;;10.76;82.32;98396.06;5220574;28;20198;-86
2021/05/29 02:47:10;;;;;;;4.38;4.13;;;9.90;99.90;;;10.75;82.48;98398.50;5212932;28;20197;-87
2021/05/29 02:49:49;;;;;;;5.05;4.50;;;9.80;99.90;;;10.72;81.77;98393.19;5211136;28;20200;-87
2021/05/29 02:52:22;;;;;;;4.22;4.03;;;9.80;99.90;;;10.65;81.90;98397.03;5206374;28;20233;-88
2021/05/29 02:54:55;;;;;;;5.20;4.80;;;9.70;99.90;;;10.63;82.09;98392.59;5214088;28;20224;-88
2021/05/29 02:57:30;;;;;;;4.87;4.50;;;9.70;99.90;;;10.58;82.17;98399.94;5226919;28;20284;-88
2021/05/29 03:00:07;;;;;;;4.90;4.50;;;9.70;99.90;;;10.52;82.48;98395.31;5218409;28;20288;-90
2021/05/29 03:02:43;;;;;;;4.47;4.18;;;9.60;99.90;;;10.49;83.36;98400.22;5217282;28;20230;-88
2021/05/29 03:05:17;;;;;;;5.28;4.82;;;9.60;99.90;;;10.48;82.98;98412.94;5224796;28;20260;-87
2021/05/29 03:07:51;;;;;;;5.13;4.73;;;9.60;99.90;;;10.41;83.56;98409.06;5217052;28;20652;-87
2021/05/29 03:10:25;;;;;;;5.67;5.17;;;9.60;99.90;;;10.38;84.87;98419.97;5219078;28;20195;-87
2021/05/29 03:13:03;;;;;;;5.63;5.13;;;9.50;99.90;;;10.40;83.95;98414.09;5228226;28;20275;-87
2021/05/29 03:15:41;;;;;;;6.63;6.13;;;9.60;99.90;;;10.38;82.50;98421.63;5214918;28;20296;-88
2021/05/29 03:18:25;;;;;;;5.80;5.30;;;9.50;99.90;;;10.34;82.57;98420.56;5207664;28;20208;-87
2021/05/29 03:21:00;;;;;;;5.10;4.80;;;9.40;99.90;;;10.23;82.50;98418.91;5220578;28;20231;-87
2021/05/29 03:23:37;;;;;;;4.82;4.50;;;9.40;99.90;;;10.26;83.47;98421.66;5207039;28;20201;-88
2021/05/29 03:26:11;;;;;;;5.10;4.72;;;9.50;99.90;;;10.28;82.89;98421.81;5211773;28;20205;-87
2021/05/29 03:28:46;;;;;;;5.47;5.10;;;9.40;99.90;;;10.24;83.51;98427.44;5207569;28;20613;-87
2021/05/29 03:31:25;;;;;;;5.30;5.00;;;9.40;99.90;;;10.20;83.09;98431.47;5215493;28;20236;-87
2021/05/29 03:34:03;;;;;;;5.40;5.10;;;9.40;99.90;;;10.15;83.81;98427.72;5210473;28;20212;-87
2021/05/29 03:36:40;;;;;;;5.43;5.10;;;9.30;99.90;;;10.21;83.73;98430.69;5207605;28;20596;-88
2021/05/29 03:39:23;;;;;;;5.03;4.63;;;9.40;99.90;;;10.17;84.28;98438.94;5207337;28;20605;-87
2021/05/29 03:41:59;;;;;;;4.83;4.53;;;9.30;99.90;;;10.23;83.47;98438.47;5223669;28;20594;-86
2021/05/29 03:44:42;;;;;;;5.57;5.17;;;9.40;99.90;;;10.27;83.27;98443.03;5207101;28;20205;-87
2021/05/29 03:47:17;;;;;;;5.60;5.10;;;9.40;99.90;;;10.18;83.41;98448.34;5231195;28;20279;-88
2021/05/29 03:49:50;;;;;;;5.43;5.13;;;9.30;99.90;;;10.17;83.82;98448.28;5232132;28;20236;-88
2021/05/29 03:52:26;;;;;;;7.27;6.50;;;9.30;99.90;;;10.13;83.47;98444.63;5229353;28;20240;-88
2021/05/29 03:55:03;;;;;;;9.43;8.73;;;9.20;99.90;;;10.16;83.78;98444.84;5211507;28;20202;-87
2021/05/29 03:57:47;;;;;;;10.67;9.63;;;9.20;99.90;;;10.14;83.16;98446.41;5215340;28;20212;-88
2021/05/29 04:00:23;;;;;;;7.83;7.13;;;9.20;99.90;;;10.17;82.99;98443.16;5228878;28;20600;-88
2021/05/29 04:02:57;;;;;;;7.30;6.70;;;9.20;99.90;;;10.18;83.51;98448.34;5211193;28;20589;-88
2021/05/29 04:05:40;;;;;;;6.72;6.22;;;9.20;99.90;;;10.18;83.17;98453.47;5230109;28;20197;-87
2021/05/29 04:11:10;;;;;;;5.97;5.37;;;9.40;99.90;;;10.33;83.56;98458.75;5211761;28;20255;-89
2021/05/29 04:13:44;;;;;;;6.80;6.30;;;9.40;99.90;;;10.43;83.45;98457.72;5218434;28;20193;-88
2021/05/29 04:16:27;;;;;;;8.10;7.40;;;9.50;99.90;;;10.49;82.76;98461.56;5222934;28;20209;-88
2021/05/29 04:19:03;;;;;;;8.07;7.47;;;9.50;99.90;;;10.49;82.29;98450.47;5223508;28;20193;-87
2021/05/29 04:21:42;;;;;;;7.30;6.70;;;9.50;99.90;;;10.43;81.69;98453.50;5221458;28;20228;-87
2021/05/29 04:24:15;;;;;;;6.60;6.07;;;9.50;99.90;;;10.45;81.99;98457.06;5218740;28;20208;-88
2021/05/29 04:26:53;;;;;;;7.00;6.33;;;9.60;99.90;;;10.48;81.75;98453.81;5218688;28;20205;-88
2021/05/29 04:29:28;;;;;;;6.03;5.53;;;9.60;99.90;;;10.59;82.30;98458.84;5223754;28;20631;-84
2021/05/29 04:32:02;;;;;;;5.97;5.50;;;9.70;99.90;;;10.70;81.29;98462.13;5217079;28;20241;-87
2021/05/29 04:34:35;;;;;;;5.57;5.07;;;9.70;99.90;;;10.83;80.62;98462.13;5212080;28;20193;-86
2021/05/29 04:37:08;;;;;;;4.50;4.15;;;9.80;99.90;;;10.95;79.75;98463.72;5223933;28;20220;-87
2021/05/29 04:39:40;;;;;;;6.68;6.07;;;9.90;99.90;;;11.01;79.41;98464.13;5212360;28;20221;-87
2021/05/29 04:42:13;;;;;;;7.75;6.95;;;10.00;99.90;;;11.32;78.00;98463.53;5217715;28;20226;-88
2021/05/29 04:44:49;;;;;;;6.40;5.90;;;10.20;99.90;;;11.39;77.06;98464.03;5219790;28;20209;-86
2021/05/29 04:47:22;;;;;;;5.50;5.10;;;10.30;99.90;;;11.41;78.35;98467.56;5229506;28;20215;-86
2021/05/29 04:49:55;;;;;;;6.93;6.32;;;10.30;99.90;;;11.52;77.54;98469.94;5210423;28;20413;-86
2021/05/29 04:52:28;;;;;;;6.00;5.60;;;10.30;99.90;;;11.80;76.68;98464.84;5218184;28;20214;-86
2021/05/29 04:55:01;;;;;;;5.15;4.75;;;10.60;99.90;;;12.18;75.97;98465.53;5223813;28;20198;-89
2021/05/29 04:57:34;;;;;;;5.40;5.00;;;11.00;99.90;;;12.90;73.95;98473.16;5218087;28;20204;-87
2021/05/29 05:00:15;;;;;;;5.03;4.63;;;11.70;99.90;;;13.70;70.07;98460.56;5213203;28;20205;-86
2021/05/29 05:03:05;;;;;;;4.68;4.30;;;12.30;99.90;;;14.43;66.33;98461.91;5210408;28;20237;-87
2021/05/29 05:09:12;;;;;;;4.70;4.40;;;13.10;99.90;;;15.25;62.30;98463.41;5189395;28;20605;-86
2021/05/29 05:11:48;;;;;;;4.90;4.60;;;13.40;99.90;;;15.46;61.93;98453.28;5219974;28;20668;-87
2021/05/29 05:14:38;;;;;;;5.10;4.70;;;13.60;99.90;;;15.69;61.09;98462.13;5210194;28;20635;-87
2021/05/29 05:17:10;;;;;;;5.00;4.50;;;13.50;99.90;;;16.12;59.93;98454.66;5206899;28;20198;-86
2021/05/29 05:19:44;;;;;;;4.47;4.07;;;14.00;99.90;;;16.67;58.24;98466.50;5210071;28;20291;-85
2021/05/29 05:22:17;;;;;;;5.15;4.75;;;14.60;99.90;;;17.11;56.71;98459.75;5218113;28;20221;-86
2021/05/29 05:24:49;;;;;;;4.80;4.50;;;15.00;99.90;;;17.58;54.47;98462.50;5214425;28;20200;-86
2021/05/29 05:27:22;;;;;;;4.63;4.00;;;15.30;99.90;;;17.86;53.76;98465.34;5210388;28;20205;-84
2021/05/29 05:29:55;;;;;;;4.18;3.88;;;15.40;99.90;;;18.11;53.56;98464.53;5210703;28;20971;-86
2021/05/29 05:32:27;;;;;;;4.25;3.95;;;15.60;99.90;;;18.23;52.44;98461.56;5208404;28;20317;-87
2021/05/29 05:35:02;;;;;;;4.70;4.40;;;15.80;99.90;;;18.50;52.01;98465.97;5210184;28;20450;-87
2021/05/29 05:37:35;;;;;;;4.13;3.83;;;16.10;99.90;;;18.57;51.10;98465.34;5220537;28;20199;-87
2021/05/29 05:40:09;;;;;;;3.78;3.58;;;16.20;99.90;;;18.80;50.67;98464.47;5218698;28;20220;-87
2021/05/29 05:42:43;;;;;;;3.75;3.45;;;16.40;99.90;;;19.16;49.56;98461.34;5210199;28;20224;-87
2021/05/29 05:45:18;;;;;;;4.13;3.78;;;16.70;99.90;;;19.45;48.70;98464.00;5212281;28;20202;-86
2021/05/29 05:47:50;;;;;;;3.92;3.72;;;17.00;99.90;;;19.76;47.89;98455.50;5211059;28;20576;-87
2021/05/29 05:50:24;;;;;;;4.28;3.97;;;17.20;99.90;;;19.63;47.31;98464.59;5210671;28;20196;-87
2021/05/29 05:52:57;;;;;;;4.10;3.80;;;17.20;99.90;;;19.84;47.04;98459.19;5207823;28;20709;-88
2021/05/29 05:55:30;;;;;;;4.13;3.72;;;17.30;99.90;;;19.94;47.13;98461.22;5212407;28;20205;-87
2021/05/29 05:58:02;;;;;;;4.40;4.10;;;17.30;99.90;;;19.96;46.12;98464.75;5209229;28;20201;-88
2021/05/29 06:00:35;;;;;;;4.18;3.78;;;17.30;99.90;;;19.75;46.92;98464.13;5212670;28;20482;-90
2021/05/29 06:03:08;;;;;;;4.10;3.90;;;17.20;99.90;;;20.00;46.78;98465.72;5221864;28;20213;-88
2021/05/29 06:05:42;;;;;;;4.00;3.65;;;17.30;99.90;;;20.57;45.61;98468.22;5210413;28;20198;-89
2021/05/29 06:08:15;;;;;;;4.40;4.10;;;17.40;99.90;;;20.38;45.95;98473.75;5210670;28;20281;-90
2021/05/29 06:10:48;;;;;;;4.60;4.20;;;17.40;99.90;;;20.50;44.82;98463.69;5205371;28;20194;-88
2021/05/29 06:13:34;;;;;;;3.78;3.47;;;17.60;99.90;;;21.09;43.80;98467.03;5211589;28;20280;-89
2021/05/29 06:19:15;;;;;;;4.07;3.67;;;18.10;99.10;;;22.06;41.20;98461.47;5211725;28;20205;-86
2021/05/29 06:21:55;;;;;;;3.80;3.53;;;18.30;98.10;;;22.40;40.03;98457.84;5214192;28;20218;-87
2021/05/29 06:24:29;;;;;;;4.60;3.85;;;18.80;97.10;;;22.28;40.55;98470.66;5211852;28;20196;-87
2021/05/29 06:27:03;;;;;;;3.42;3.22;;;19.00;96.90;;;23.04;39.88;98475.59;5212674;28;20201;-87
2021/05/29 06:29:36;;;;;;;3.10;2.90;;;19.40;96.90;;;23.35;38.43;98469.16;5211563;28;20204;-85
2021/05/29 06:32:12;;;;;;;3.22;3.03;;;19.80;95.50;;;23.80;37.87;98473.34;5217657;28;20295;-87
2021/05/29 06:34:46;;;;;;;3.40;3.20;;;20.40;94.80;;;23.79;37.91;98467.25;5207491;28;20217;-89
2021/05/29 06:37:20;;;;;;;3.30;3.00;;;20.40;94.30;;;23.93;36.93;98472.69;5216703;28;20634;-89
2021/05/29 06:39:52;;;;;;;3.10;2.90;;;20.50;93.90;;;24.08;36.84;98474.63;5211104;28;20190;-89
2021/05/29 06:42:27;;;;;;;2.97;2.78;;;21.00;93.10;;;24.39;36.86;98483.72;5211430;28;20267;-90
2021/05/29 06:45:00;;;;;;;3.05;2.80;;;21.00;93.30;;;24.67;35.92;98482.34;5216794;28;20207;-89
2021/05/29 06:47:34;;;;;;;3.35;3.15;;;21.50;92.30;;;24.52;35.55;98486.50;5214061;28;20292;-89
2021/05/29 06:50:15;;;;;;;3.05;2.85;;;21.50;91.30;;;24.80;34.20;98479.84;5215578;28;20220;-88
2021/05/29 06:52:54;;;;;;;3.22;2.63;;;21.50;90.50;;;24.93;33.62;98474.75;5221302;28;20221;-89
2021/05/29 07:01:27;;;;;;;2.78;2.58;;;22.40;87.60;;;25.76;32.76;98474.59;5161104;28;20217;-87
2021/05/29 07:04:03;;;;;;;2.78;2.40;;;22.50;87.60;;;25.67;32.70;98482.38;5162366;28;20218;-89
2021/05/29 07:06:39;;;;;;;2.60;2.40;;;22.50;86.90;;;25.54;31.75;98474.44;5191875;28;20188;-88
2021/05/29 07:09:15;;;;;;;2.42;2.22;;;22.60;84.40;;;25.40;30.43;98481.31;5220313;28;20724;-89
2021/05/29 07:11:56;;;;;;;2.08;1.98;;;22.90;80.80;;;25.78;30.26;98478.06;5213527;28;20282;-88
2021/05/29 07:14:33;;;;;;;2.75;2.25;;;23.00;81.10;;;25.62;30.62;98480.59;5209185;28;20197;-89
2021/05/29 07:17:37;;;;;;;2.55;2.35;;;23.00;81.30;;;25.74;29.94;98477.19;5213246;28;20189;-89
2021/05/29 07:20:17;;;;;;;2.17;2.08;;;23.10;79.40;;;25.73;29.31;98471.97;5205111;28;20244;-89
2021/05/29 07:22:59;;;;;;;2.38;2.17;;;23.70;76.50;;;25.75;30.38;98480.69;5217780;28;20706;-88
2021/05/29 07:25:36;;;;;;;2.40;2.30;;;23.20;78.90;;;25.68;30.69;98478.91;5211888;28;20288;-88
2021/05/29 07:28:25;;;;;;;2.83;2.13;;;23.20;78.80;;;25.29;29.68;98475.09;5215480;28;20220;-88
2021/05/29 07:30:59;;;;;;;2.03;1.92;;;22.80;76.70;;;25.74;28.69;98473.69;5206865;28;20626;-88
2021/05/29 07:33:39;;;;;;;2.10;1.95;;;23.50;74.90;;;25.89;29.14;98473.81;5215254;28;20235;-88
2021/05/29 07:36:15;;;;;;;1.98;1.77;;;23.60;74.60;;;25.20;27.91;98477.66;5211814;28;20577;-88
2021/05/29 07:38:49;;;;;;;2.00;1.90;;;23.20;72.00;;;25.45;28.97;98473.50;5208129;28;20196;-88
2021/05/29 07:41:43;;;;;;;1.92;1.70;;;23.00;74.50;;;25.88;27.67;98466.84;5219937;28;20209;-86
2021/05/29 07:44:36;;;;;;;1.92;1.80;;;23.20;72.70;;;25.66;27.76;98467.53;5211261;28;20221;-88
2021/05/29 07:47:09;;;;;;;2.30;1.83;;;23.10;72.30;;;25.86;28.30;98465.94;5208351;28;20336;-86
2021/05/29 07:49:42;;;;;;;1.77;1.67;;;23.60;72.30;;;26.48;28.15;98467.09;5213606;28;20189;-85
2021/05/29 07:52:15;;;;;;;1.77;1.67;;;23.50;73.90;;;26.36;27.02;98462.69;5220536;28;20695;-85
2021/05/29 07:54:48;;;;;;;1.85;1.75;;;23.50;71.40;;;26.37;26.00;98474.94;5213176;28;20276;-87
2021/05/29 07:57:25;;;;;;;1.80;1.70;;;23.70;69.30;;;26.47;27.02;98461.00;5209735;28;20205;-86
2021/05/29 07:59:58;;;;;;;1.88;1.60;;;23.60;70.90;;;26.69;26.46;98468.94;5218743;28;20628;-86
2021/05/29 08:02:30;;;;;;;1.70;1.60;;;23.60;70.70;;;26.88;27.03;98473.38;5215288;28;20208;-86
2021/05/29 08:05:06;;;;;;;2.30;1.63;;;23.90;71.20;;;27.39;25.24;98469.06;5220757;28;20606;-87
2021/05/29 08:07:44;;;;;;;1.90;1.80;;;24.50;68.50;;;27.00;25.89;98471.63;5218593;28;20224;-85
2021/05/29 08:10:22;;;;;;;2.08;1.90;;;24.10;67.90;;;27.38;26.05;98463.78;5212740;28;20193;-87
2021/05/29 08:12:56;;;;;;;1.55;1.45;;;24.20;70.20;;;27.24;25.79;98462.91;5225928;28;20304;-87
2021/05/29 08:15:31;;;;;;;2.00;1.90;;;24.20;67.40;;;26.74;25.64;98469.84;5211355;28;20196;-86
2021/05/29 08:18:04;;;;;;;1.77;1.67;;;24.90;65.60;;;26.31;27.15;98458.31;5221769;28;20629;-86
2021/05/29 08:20:38;;;;;;;2.05;1.70;;;24.60;67.60;;;26.34;27.63;98458.31;5211577;28;20292;-85
2021/05/29 08:23:11;;;;;;;2.97;1.98;;;24.50;67.70;;;25.99;27.77;98464.28;5217013;28;20221;-87
2021/05/29 08:25:44;;;;;;;1.73;1.63;;;24.50;68.30;;;25.72;26.42;98463.19;5210394;28;20194;-86
2021/05/29 08:28:17;;;;;;;2.10;1.80;;;24.30;64.40;;;25.66;26.86;98464.91;5205837;28;20635;-86
2021/05/29 08:30:56;;;;;;;2.65;1.83;;;24.50;65.60;;;25.34;28.55;98469.03;5205282;28;20269;-85
2021/05/29 08:33:29;;;;;;;2.45;1.88;;;24.00;69.50;;;24.75;28.78;98463.22;5214257;28;20223;-85
2021/05/29 08:36:04;;;;;;;1.83;1.73;;;23.20;68.70;;;24.66;28.52;98466.63;5208412;28;20791;-84
2021/05/29 08:38:38;;;;;;;1.80;1.70;;;23.20;68.00;;;24.74;28.08;98467.59;5223107;28;20205;-85
2021/05/29 08:41:11;;;;;;;2.25;2.05;;;23.50;67.20;;;24.74;28.53;98470.19;5219132;28;20607;-86
2021/05/29 08:43:45;;;;;;;2.08;1.90;;;23.50;68.10;;;24.64;29.43;98456.16;5209688;28;20292;-85
2021/05/29 08:46:19;;;;;;;1.83;1.73;;;23.70;68.70;;;24.56;29.44;98459.56;5212613;28;20193;-84
2021/05/29 08:48:52;;;;;;;2.10;2.00;;;23.50;69.40;;;24.48;30.06;98459.47;5209320;28;20677;-84
2021/05/29 08:51:25;;;;;;;1.92;1.83;;;23.40;69.80;;;24.24;29.70;98471.34;5212901;28;20605;-84
2021/05/29 08:53:58;;;;;;;2.10;2.00;;;23.10;69.40;;;24.49;28.80;98466.44;5215490;28;20212;-84
2021/05/29 08:56:31;;;;;;;2.05;1.90;;;23.30;66.40;;;24.17;29.17;98469.50;5222753;28;20189;-84
2021/05/29 08:59:05;;;;;;;2.33;2.00;;;23.00;67.90;;;24.05;29.66;98465.00;5217965;28;20201;-84
2021/05/29 09:01:37;;;;;;;2.13;1.90;;;23.00;68.30;;;24.27;29.95;98468.78;5222865;28;20220;-85
2021/05/29 09:04:10;;;;;;;2.20;2.00;;;23.20;68.70;;;23.99;31.60;98466.66;5216639;28;20214;-84
2021/05/29 09:06:44;;;;;;;2.03;1.92;;;22.80;71.90;;;24.09;31.58;98465.91;5228481;28;20216;-84
2021/05/29 09:09:19;;;;;;;2.22;1.73;;;22.70;73.60;;;23.85;30.35;98455.16;5207305;28;20209;-84
2021/05/29 09:11:53;;;;;;;1.60;1.55;;;22.50;70.40;;;23.53;30.11;98452.91;5215873;28;20584;-84
2021/05/29 09:14:45;;;;;;;1.67;1.58;;;22.40;69.50;;;23.13;29.75;98465.31;5212389;28;20194;-84
2021/05/29 09:17:19;;;;;;;1.70;1.60;;;22.00;68.70;;;23.18;31.35;98461.06;5212348;28;20196;-83
2021/05/29 09:20:03;;;;;;;2.38;1.70;;;22.10;71.00;;;23.15;30.58;98456.69;5216959;28;20204;-84
2021/05/29 09:22:39;;;;;;;1.90;1.80;;;22.10;69.90;;;23.73;29.51;98451.50;5207762;28;20222;-84
2021/05/29 09:25:16;;;;;;;2.00;1.80;;;22.60;67.70;;;23.91;26.90;98469.16;5212652;28;20309;-84
2021/05/29 09:27:56;;;;;;;2.33;2.10;;;22.70;63.40;;;23.27;29.24;98466.44;5209734;28;20201;-84
2021/05/29 09:30:40;;;;;;;2.25;2.05;;;22.30;66.90;;;22.67;30.97;98474.91;5219950;28;20204;-83
2021/05/29 09:33:16;;;;;;;2.10;1.98;;;21.60;69.50;;;22.37;32.14;98470.81;5220441;28;20201;-82
2021/05/29 09:35:56;;;;;;;2.15;2.05;;;21.20;72.20;;;22.13;32.91;98471.19;5217570;28;20198;-83
2021/05/29 09:38:35;;;;;;;2.20;1.98;;;20.90;73.50;;;21.88;32.80;98472.38;5214843;28;20193;-83
2021/05/29 09:41:20;;;;;;;2.05;1.95;;;20.50;73.80;;;21.65;34.41;98481.38;5219942;28;20209;-84
2021/05/29 09:43:56;;;;;;;2.13;2.03;;;20.30;76.20;;;21.38;33.73;98481.63;5209567;28;20221;-85
2021/05/29 09:46:30;;;;;;;2.22;2.03;;;20.10;74.70;;;21.27;34.24;98487.41;5210394;28;20200;-84
2021/05/29 09:49:03;;;;;;;2.85;2.40;;;20.00;75.40;;;21.22;35.41;98488.13;5207422;28;20201;-84
2021/05/29 09:51:37;;;;;;;2.47;2.20;;;20.30;76.50;;;21.61;35.26;98477.84;5228683;28;20208;-85
2021/05/29 09:54:12;;;;;;;3.70;1.80;;;20.80;75.70;;;21.85;33.74;98485.31;5205947;28;20194;-86
2021/05/29 09:56:45;;;;;;;2.30;2.08;;;21.00;73.30;;;21.84;32.75;98485.31;5223742;28;20201;-85
2021/05/29 09:59:20;;;;;;;2.33;2.13;;;20.70;72.50;;;21.82;32.79;98490.47;5221598;28;20683;-85
2021/05/29 10:01:54;;;;;;;2.30;2.20;;;20.60;72.40;;;21.66;32.10;98475.31;5214452;28;20605;-86
2021/05/29 10:04:37;;;;;;;2.50;2.30;;;20.60;71.30;;;21.63;32.73;98480.47;5216896;28;20328;-84
2021/05/29 10:07:12;;;;;;;1.80;1.70;;;20.60;72.10;;;21.26;32.07;98489.94;5205692;28;20198;-85
2021/05/29 10:09:45;;;;;;;2.00;1.90;;;20.50;70.40;;;21.23;32.41;98487.28;5216362;28;20198;-84
2021/05/29 10:12:18;;;;;;;1.80;1.70;;;20.30;71.10;;;21.29;34.80;98490.00;5222650;28;20213;-84
2021/05/29 10:14:51;;;;;;;1.90;1.80;;;20.50;75.30;;;21.53;33.55;98480.25;5211443;28;20210;-85
2021/05/29 10:17:25;;;;;;;2.03;1.88;;;20.50;73.20;;;21.54;34.86;98475.94;5206818;28;20208;-84
2021/05/29 10:19:58;;;;;;;2.15;1.65;;;20.40;76.00;;;21.65;34.64;98473.56;5217739;28;20235;-84
2021/05/29 10:22:31;;;;;;;1.85;1.73;;;20.50;75.70;;;21.52;34.15;98482.84;5221457;28;20227;-85
2021/05/29 10:25:10;;;;;;;2.28;2.17;;;20.40;74.90;;;21.02;34.63;98485.88;5215809;28;20249;-84
2021/05/29 10:27:45;;;;;;;1.80;1.70;;;20.10;75.40;;;20.82;35.98;98494.88;5217162;28;20196;-84
2021/05/29 10:30:20;;;;;;;2.20;2.00;;;19.70;77.40;;;20.60;36.87;98491.72;5217645;28;20207;-83
2021/05/29 10:33:12;;;;;;;1.83;1.73;;;19.60;78.80;;;20.52;36.60;98497.47;5219988;28;20209;-82
2021/05/29 10:35:46;;;;;;;2.10;2.00;;;19.40;78.10;;;20.67;36.76;98497.97;5206598;28;20197;-81
2021/05/29 10:38:22;;;;;;;2.00;1.90;;;19.60;79.30;;;20.80;35.53;98488.75;5217511;28;20198;-84
2021/05/29 10:40:54;;;;;;;2.00;1.90;;;19.70;76.40;;;21.05;35.15;98500.69;5213952;28;20201;-86
2021/05/29 10:43:31;;;;;;;1.77;1.67;;;20.00;76.30;;;21.32;33.08;98490.13;5224350;28;20207;-84
2021/05/29 10:46:13;;;;;;;1.73;1.63;;;20.20;73.00;;;21.29;31.90;98479.63;5219273;28;20193;-85
2021/05/29 10:48:50;;;;;;;1.80;1.70;;;20.20;70.30;;;21.40;32.89;98485.13;5216101;28;20186;-86
2021/05/29 10:51:37;;;;;;;1.90;1.80;;;20.30;72.60;;;21.28;32.70;98483.06;5215471;28;20300;-86
2021/05/29 10:54:13;;;;;;;1.70;1.60;;;20.20;72.20;;;21.26;32.61;98479.53;5219768;28;20284;-86
2021/05/29 10:56:56;;;;;;;1.60;1.50;;;20.30;71.60;;;21.31;32.20;98483.16;5220635;28;20272;-86
2021/05/29 10:59:36;;;;;;;1.60;1.50;;;20.20;70.10;;;21.28;31.18;98483.06;5210374;28;20240;-85
2021/05/29 11:02:11;;;;;;;1.50;1.48;;;20.30;69.50;;;21.31;32.37;98477.94;5218861;28;20228;-85
2021/05/29 11:04:45;;;;;;;1.65;1.55;;;20.40;70.30;;;21.27;30.97;98476.13;5207144;28;20583;-87
2021/05/29 11:07:26;;;;;;;1.63;1.50;;;20.40;68.50;;;21.25;31.62;98472.59;5216851;28;20581;-85
2021/05/29 11:09:59;;;;;;;1.70;1.60;;;20.40;69.90;;;21.67;30.84;98466.69;5221030;28;20233;-86
2021/05/29 11:12:54;;;;;;;1.95;1.27;;;20.80;67.40;;;21.73;32.21;98467.72;5209353;28;20218;-86
2021/05/29 11:15:54;;;;;;;1.73;1.60;;;20.90;69.50;;;21.64;33.21;98471.84;5213270;28;20205;-87